sensor_id;sensor_type;location;lat;lon;timestamp;pressure;altitude;pressure_sealevel;temperature;humidity
23733;BME280;12047;53.450;-2.286;2023-04-24T00:01:13;100428.72;;;13.79;100.00
23733;BME280;12047;53.450;-2.286;2023-04-24T00:06:13;100427.38;;;13.67;100.00
23733;BME280;12047;53.450;-2.286;2023-04-24T00:11:14;100431.38;;;13.05;100.00
23733;BME280;12047;53.450;-2.286;2023-04-24T00:16:14;100445.50;;;13.13;100.00
23733;BME280;12047;53.450;-2.286;2023-04-24T00:21:15;100439.63;;;12.59;100.00
23733;BME280;12047;53.450;-2.286;2023-04-24T00:26:17;100436.00;;;13.03;100.00
23733;BME280;12047;53.450;-2.286;2023-04-24T00:31:18;100434.22;;;13.11;100.00
23733;BME280;12047;53.450;-2.286;2023-04-24T00:36:19;100439.69;;;14.17;100.00
23733;BME280;12047;53.450;-2.286;2023-04-24T00:41:21;100437.69;;;14.11;100.00
23733;BME280;12047;53.450;-2.286;2023-04-24T00:46:22;100440.72;;;13.83;100.00
23733;BME280;12047;53.450;-2.286;2023-04-24T00:51:22;100443.88;;;13.79;100.00
23733;BME280;12047;53.450;-2.286;2023-04-24T00:56:24;100451.00;;;13.54;100.00
23733;BME280;12047;53.450;-2.286;2023-04-24T01:01:25;100452.69;;;14.20;99.29
23733;BME280;12047;53.450;-2.286;2023-04-24T01:06:28;100459.03;;;14.51;97.96
23733;BME280;12047;53.450;-2.286;2023-04-24T01:11:29;100467.50;;;14.39;99.07
23733;BME280;12047;53.450;-2.286;2023-04-24T01:16:30;100466.53;;;14.48;99.32
23733;BME280;12047;53.450;-2.286;2023-04-24T01:21:34;100475.28;;;13.51;99.59
23733;BME280;12047;53.450;-2.286;2023-04-24T01:26:36;100472.97;;;13.64;100.00
23733;BME280;12047;53.450;-2.286;2023-04-24T01:31:36;100478.81;;;14.65;97.87
23733;BME280;12047;53.450;-2.286;2023-04-24T01:36:37;100483.34;;;14.48;95.86
23733;BME280;12047;53.450;-2.286;2023-04-24T01:41:38;100493.31;;;14.62;99.63
23733;BME280;12047;53.450;-2.286;2023-04-24T01:46:38;100491.97;;;14.67;98.74
23733;BME280;12047;53.450;-2.286;2023-04-24T01:51:39;100493.84;;;14.50;100.00
23733;BME280;12047;53.450;-2.286;2023-04-24T01:56:43;100497.81;;;14.21;100.00
23733;BME280;12047;53.450;-2.286;2023-04-24T02:01:43;100495.25;;;14.85;98.85
23733;BME280;12047;53.450;-2.286;2023-04-24T02:06:44;100496.66;;;14.24;98.29
23733;BME280;12047;53.450;-2.286;2023-04-24T02:11:44;100491.16;;;14.17;98.31
23733;BME280;12047;53.450;-2.286;2023-04-24T02:16:45;100501.19;;;13.07;100.00
23733;BME280;12047;53.450;-2.286;2023-04-24T02:21:45;100501.91;;;12.83;99.00
23733;BME280;12047;53.450;-2.286;2023-04-24T02:26:46;100507.50;;;13.40;98.77
23733;BME280;12047;53.450;-2.286;2023-04-24T02:31:46;100512.97;;;13.30;100.00
23733;BME280;12047;53.450;-2.286;2023-04-24T02:36:47;100513.28;;;13.01;99.65
23733;BME280;12047;53.450;-2.286;2023-04-24T02:41:47;100520.47;;;13.35;99.63
23733;BME280;12047;53.450;-2.286;2023-04-24T02:46:47;100529.75;;;13.89;97.30
23733;BME280;12047;53.450;-2.286;2023-04-24T02:51:48;100527.94;;;13.39;96.60
23733;BME280;12047;53.450;-2.286;2023-04-24T02:56:48;100532.09;;;13.84;94.48
23733;BME280;12047;53.450;-2.286;2023-04-24T03:01:49;100536.13;;;14.37;93.71
23733;BME280;12047;53.450;-2.286;2023-04-24T03:06:51;100536.16;;;14.77;95.01
23733;BME280;12047;53.450;-2.286;2023-04-24T03:11:53;100535.47;;;14.67;98.07
23733;BME280;12047;53.450;-2.286;2023-04-24T03:16:53;100542.47;;;14.36;100.00
23733;BME280;12047;53.450;-2.286;2023-04-24T03:21:54;100537.81;;;14.29;99.63
23733;BME280;12047;53.450;-2.286;2023-04-24T03:26:54;100550.16;;;13.64;99.01
23733;BME280;12047;53.450;-2.286;2023-04-24T03:31:56;100552.13;;;14.04;97.83
23733;BME280;12047;53.450;-2.286;2023-04-24T03:36:57;100559.09;;;13.47;98.54
23733;BME280;12047;53.450;-2.286;2023-04-24T03:41:57;100564.38;;;13.81;98.05
23733;BME280;12047;53.450;-2.286;2023-04-24T03:46:58;100560.38;;;13.35;100.00
23733;BME280;12047;53.450;-2.286;2023-04-24T03:51:58;100565.63;;;13.52;96.52
23733;BME280;12047;53.450;-2.286;2023-04-24T03:56:59;100562.94;;;14.19;95.05
23733;BME280;12047;53.450;-2.286;2023-04-24T04:02:00;100578.59;;;14.22;96.68
23733;BME280;12047;53.450;-2.286;2023-04-24T04:07:00;100577.00;;;13.71;95.82
23733;BME280;12047;53.450;-2.286;2023-04-24T04:12:04;100584.06;;;14.12;96.97
23733;BME280;12047;53.450;-2.286;2023-04-24T04:17:04;100581.72;;;13.85;96.77
23733;BME280;12047;53.450;-2.286;2023-04-24T04:22:05;100592.31;;;13.77;97.17
23733;BME280;12047;53.450;-2.286;2023-04-24T04:27:06;100602.09;;;13.60;95.93
23733;BME280;12047;53.450;-2.286;2023-04-24T04:32:07;100597.50;;;13.44;96.06
23733;BME280;12047;53.450;-2.286;2023-04-24T04:37:07;100605.63;;;13.09;95.05
23733;BME280;12047;53.450;-2.286;2023-04-24T04:42:08;100605.28;;;13.12;95.40
23733;BME280;12047;53.450;-2.286;2023-04-24T04:47:08;100604.00;;;13.16;96.68
23733;BME280;12047;53.450;-2.286;2023-04-24T04:52:09;100613.91;;;12.88;95.81
23733;BME280;12047;53.450;-2.286;2023-04-24T04:57:10;100630.53;;;12.46;98.72
23733;BME280;12047;53.450;-2.286;2023-04-24T05:02:10;100632.75;;;12.94;93.81
23733;BME280;12047;53.450;-2.286;2023-04-24T05:07:11;100642.69;;;12.84;95.16
23733;BME280;12047;53.450;-2.286;2023-04-24T05:12:12;100653.84;;;13.32;93.60
23733;BME280;12047;53.450;-2.286;2023-04-24T05:17:12;100656.19;;;14.03;91.92
23733;BME280;12047;53.450;-2.286;2023-04-24T05:22:13;100656.50;;;13.14;96.92
23733;BME280;12047;53.450;-2.286;2023-04-24T05:27:13;100658.19;;;13.67;95.11
23733;BME280;12047;53.450;-2.286;2023-04-24T05:32:14;100655.34;;;13.34;94.20
23733;BME280;12047;53.450;-2.286;2023-04-24T05:37:14;100661.31;;;13.10;91.61
23733;BME280;12047;53.450;-2.286;2023-04-24T05:42:15;100669.75;;;13.23;90.55
23733;BME280;12047;53.450;-2.286;2023-04-24T05:47:15;100673.47;;;13.31;90.45
23733;BME280;12047;53.450;-2.286;2023-04-24T05:52:16;100678.78;;;13.56;90.42
23733;BME280;12047;53.450;-2.286;2023-04-24T05:57:16;100677.50;;;13.43;91.20
23733;BME280;12047;53.450;-2.286;2023-04-24T06:02:17;100675.88;;;13.76;92.20
23733;BME280;12047;53.450;-2.286;2023-04-24T06:07:17;100683.19;;;14.82;88.22
23733;BME280;12047;53.450;-2.286;2023-04-24T06:12:18;100677.50;;;15.26;87.32
23733;BME280;12047;53.450;-2.286;2023-04-24T06:17:18;100699.50;;;14.95;85.27
23733;BME280;12047;53.450;-2.286;2023-04-24T06:22:19;100701.88;;;15.07;85.17
23733;BME280;12047;53.450;-2.286;2023-04-24T06:27:19;100708.16;;;14.57;84.57
23733;BME280;12047;53.450;-2.286;2023-04-24T06:32:22;100708.81;;;14.51;84.00
23733;BME280;12047;53.450;-2.286;2023-04-24T06:37:23;100707.88;;;15.01;82.52
23733;BME280;12047;53.450;-2.286;2023-04-24T06:42:23;100710.63;;;14.50;81.13
23733;BME280;12047;53.450;-2.286;2023-04-24T06:47:24;100707.69;;;14.78;80.51
23733;BME280;12047;53.450;-2.286;2023-04-24T06:52:25;100701.84;;;15.23;77.88
23733;BME280;12047;53.450;-2.286;2023-04-24T06:57:26;100713.97;;;15.74;78.88
23733;BME280;12047;53.450;-2.286;2023-04-24T07:02:27;100719.16;;;13.78;80.79
23733;BME280;12047;53.450;-2.286;2023-04-24T07:07:27;100715.09;;;14.42;81.20
23733;BME280;12047;53.450;-2.286;2023-04-24T07:12:28;100722.88;;;13.93;82.12
23733;BME280;12047;53.450;-2.286;2023-04-24T07:17:28;100725.28;;;14.46;79.50
23733;BME280;12047;53.450;-2.286;2023-04-24T07:22:29;100738.44;;;13.72;80.69
23733;BME280;12047;53.450;-2.286;2023-04-24T07:27:29;100734.97;;;14.63;79.72
23733;BME280;12047;53.450;-2.286;2023-04-24T07:32:30;100748.88;;;14.91;78.73
23733;BME280;12047;53.450;-2.286;2023-04-24T07:37:30;100738.22;;;15.08;76.98
23733;BME280;12047;53.450;-2.286;2023-04-24T07:42:31;100733.34;;;14.71;78.08
23733;BME280;12047;53.450;-2.286;2023-04-24T07:47:32;100734.53;;;15.41;75.06
23733;BME280;12047;53.450;-2.286;2023-04-24T07:52:33;100736.50;;;15.72;74.02
23733;BME280;12047;53.450;-2.286;2023-04-24T07:57:34;100737.19;;;15.41;74.40
23733;BME280;12047;53.450;-2.286;2023-04-24T08:02:34;100727.50;;;16.51;73.15
23733;BME280;12047;53.450;-2.286;2023-04-24T08:07:35;100736.59;;;16.03;73.13
23733;BME280;12047;53.450;-2.286;2023-04-24T08:12:36;100752.91;;;15.28;73.23
23733;BME280;12047;53.450;-2.286;2023-04-24T08:17:36;100749.28;;;17.02;71.66
23733;BME280;12047;53.450;-2.286;2023-04-24T08:22:37;100751.50;;;16.67;69.87
23733;BME280;12047;53.450;-2.286;2023-04-24T08:27:37;100753.38;;;15.48;71.42
23733;BME280;12047;53.450;-2.286;2023-04-24T08:32:39;100761.66;;;16.41;69.31
23733;BME280;12047;53.450;-2.286;2023-04-24T08:37:39;100751.03;;;15.37;71.33
23733;BME280;12047;53.450;-2.286;2023-04-24T08:42:44;100757.53;;;15.75;69.77
23733;BME280;12047;53.450;-2.286;2023-04-24T08:47:44;100764.19;;;14.89;72.07
23733;BME280;12047;53.450;-2.286;2023-04-24T08:52:45;100751.88;;;15.37;71.87
23733;BME280;12047;53.450;-2.286;2023-04-24T08:57:51;100759.22;;;15.03;73.14
23733;BME280;12047;53.450;-2.286;2023-04-24T09:02:55;100768.56;;;15.15;70.66
23733;BME280;12047;53.450;-2.286;2023-04-24T09:07:56;100769.06;;;15.02;70.36
23733;BME280;12047;53.450;-2.286;2023-04-24T09:12:58;100762.22;;;16.59;66.14
23733;BME280;12047;53.450;-2.286;2023-04-24T09:18:02;100760.75;;;16.87;67.75
23733;BME280;12047;53.450;-2.286;2023-04-24T09:23:02;100765.00;;;16.34;66.35
23733;BME280;12047;53.450;-2.286;2023-04-24T09:28:04;100763.19;;;16.74;66.50
23733;BME280;12047;53.450;-2.286;2023-04-24T09:33:13;100776.41;;;16.98;65.64
23733;BME280;12047;53.450;-2.286;2023-04-24T09:38:14;100775.19;;;16.39;65.15
23733;BME280;12047;53.450;-2.286;2023-04-24T09:43:14;100783.19;;;17.32;64.07
23733;BME280;12047;53.450;-2.286;2023-04-24T09:48:15;100783.38;;;17.30;65.10
23733;BME280;12047;53.450;-2.286;2023-04-24T09:53:15;100773.81;;;19.26;61.35
23733;BME280;12047;53.450;-2.286;2023-04-24T09:58:17;100777.38;;;17.06;63.12
23733;BME280;12047;53.450;-2.286;2023-04-24T10:03:17;100786.47;;;17.80;61.64
23733;BME280;12047;53.450;-2.286;2023-04-24T10:08:18;100774.03;;;18.52;59.46
23733;BME280;12047;53.450;-2.286;2023-04-24T10:13:19;100775.41;;;18.99;55.89
23733;BME280;12047;53.450;-2.286;2023-04-24T10:18:20;100793.59;;;16.81;58.26
23733;BME280;12047;53.450;-2.286;2023-04-24T10:23:21;100782.25;;;16.71;58.80
23733;BME280;12047;53.450;-2.286;2023-04-24T10:28:24;100787.78;;;17.38;60.53
23733;BME280;12047;53.450;-2.286;2023-04-24T10:33:26;100791.22;;;18.58;57.47
23733;BME280;12047;53.450;-2.286;2023-04-24T10:38:28;100799.03;;;18.53;54.61
23733;BME280;12047;53.450;-2.286;2023-04-24T10:43:29;100790.34;;;17.92;55.10
23733;BME280;12047;53.450;-2.286;2023-04-24T10:54:29;100791.50;;;17.14;54.60
23733;BME280;12047;53.450;-2.286;2023-04-24T10:59:35;100791.72;;;15.87;56.09
23733;BME280;12047;53.450;-2.286;2023-04-24T11:04:37;100781.75;;;16.98;54.36
23733;BME280;12047;53.450;-2.286;2023-04-24T11:09:38;100789.03;;;18.47;53.86
23733;BME280;12047;53.450;-2.286;2023-04-24T11:25:06;100798.59;;;17.30;55.10
23733;BME280;12047;53.450;-2.286;2023-04-24T11:30:07;100800.13;;;17.24;55.93
23733;BME280;12047;53.450;-2.286;2023-04-24T11:35:21;100803.19;;;18.11;54.23
23733;BME280;12047;53.450;-2.286;2023-04-24T11:40:24;100813.03;;;17.44;53.25
23733;BME280;12047;53.450;-2.286;2023-04-24T11:45:29;100809.56;;;17.35;50.71
23733;BME280;12047;53.450;-2.286;2023-04-24T11:50:30;100812.72;;;17.39;53.63
23733;BME280;12047;53.450;-2.286;2023-04-24T11:55:30;100806.94;;;17.73;52.47
23733;BME280;12047;53.450;-2.286;2023-04-24T12:00:32;100810.78;;;18.22;53.76
23733;BME280;12047;53.450;-2.286;2023-04-24T12:05:36;100815.19;;;17.48;52.63
23733;BME280;12047;53.450;-2.286;2023-04-24T12:10:37;100823.88;;;17.05;52.01
23733;BME280;12047;53.450;-2.286;2023-04-24T12:15:39;100832.78;;;16.97;50.82
23733;BME280;12047;53.450;-2.286;2023-04-24T12:20:40;100839.50;;;17.61;50.31
23733;BME280;12047;53.450;-2.286;2023-04-24T12:25:40;100845.03;;;16.52;55.71
23733;BME280;12047;53.450;-2.286;2023-04-24T12:30:44;100853.13;;;16.28;56.25
23733;BME280;12047;53.450;-2.286;2023-04-24T12:35:45;100854.22;;;17.20;54.97
23733;BME280;12047;53.450;-2.286;2023-04-24T12:40:45;100860.53;;;17.04;54.30
23733;BME280;12047;53.450;-2.286;2023-04-24T12:45:47;100863.25;;;16.49;55.77
23733;BME280;12047;53.450;-2.286;2023-04-24T12:50:49;100869.63;;;16.87;55.45
23733;BME280;12047;53.450;-2.286;2023-04-24T12:55:50;100872.25;;;17.03;54.04
23733;BME280;12047;53.450;-2.286;2023-04-24T13:00:52;100871.59;;;17.24;52.92
23733;BME280;12047;53.450;-2.286;2023-04-24T13:05:53;100868.44;;;16.89;52.10
23733;BME280;12047;53.450;-2.286;2023-04-24T13:10:53;100872.06;;;16.74;51.27
23733;BME280;12047;53.450;-2.286;2023-04-24T13:15:54;100869.91;;;17.31;50.05
23733;BME280;12047;53.450;-2.286;2023-04-24T13:20:55;100871.78;;;17.45;49.71
23733;BME280;12047;53.450;-2.286;2023-04-24T13:25:55;100868.63;;;17.19;50.32
23733;BME280;12047;53.450;-2.286;2023-04-24T13:30:58;100868.09;;;17.23;50.17
23733;BME280;12047;53.450;-2.286;2023-04-24T13:35:59;100872.56;;;17.54;50.89
23733;BME280;12047;53.450;-2.286;2023-04-24T13:41:00;100865.56;;;17.30;52.20
23733;BME280;12047;53.450;-2.286;2023-04-24T13:46:00;100885.28;;;16.67;53.82
23733;BME280;12047;53.450;-2.286;2023-04-24T13:51:03;100884.75;;;15.92;51.18
23733;BME280;12047;53.450;-2.286;2023-04-24T13:56:04;100893.66;;;16.64;51.47
23733;BME280;12047;53.450;-2.286;2023-04-24T14:01:05;100904.31;;;16.01;51.57
23733;BME280;12047;53.450;-2.286;2023-04-24T14:06:06;100896.03;;;16.90;51.23
23733;BME280;12047;53.450;-2.286;2023-04-24T14:11:06;100896.66;;;16.69;52.32
23733;BME280;12047;53.450;-2.286;2023-04-24T14:16:07;100919.69;;;15.16;56.66
23733;BME280;12047;53.450;-2.286;2023-04-24T14:21:07;100915.75;;;15.28;65.12
23733;BME280;12047;53.450;-2.286;2023-04-24T14:26:08;100916.81;;;15.68;63.82
23733;BME280;12047;53.450;-2.286;2023-04-24T14:31:08;100940.22;;;14.73;64.73
23733;BME280;12047;53.450;-2.286;2023-04-24T14:36:09;100929.97;;;15.53;62.84
23733;BME280;12047;53.450;-2.286;2023-04-24T14:41:10;100928.69;;;15.73;62.96
23733;BME280;12047;53.450;-2.286;2023-04-24T14:46:12;100931.91;;;14.76;63.28
23733;BME280;12047;53.450;-2.286;2023-04-24T14:51:12;100934.19;;;15.88;61.44
23733;BME280;12047;53.450;-2.286;2023-04-24T14:56:13;100935.88;;;15.97;59.73
23733;BME280;12047;53.450;-2.286;2023-04-24T15:01:14;100942.31;;;15.54;60.61
23733;BME280;12047;53.450;-2.286;2023-04-24T15:06:14;100943.19;;;16.27;58.32
23733;BME280;12047;53.450;-2.286;2023-04-24T15:11:15;100945.19;;;16.09;57.48
23733;BME280;12047;53.450;-2.286;2023-04-24T15:16:16;100939.28;;;16.79;57.43
23733;BME280;12047;53.450;-2.286;2023-04-24T15:21:16;100945.47;;;15.49;62.40
23733;BME280;12047;53.450;-2.286;2023-04-24T15:26:18;100946.28;;;15.42;69.91
23733;BME280;12047;53.450;-2.286;2023-04-24T15:31:19;100961.59;;;14.29;75.57
23733;BME280;12047;53.450;-2.286;2023-04-24T15:36:20;100963.34;;;14.98;78.11
23733;BME280;12047;53.450;-2.286;2023-04-24T15:41:21;100966.94;;;15.90;76.78
23733;BME280;12047;53.450;-2.286;2023-04-24T15:46:21;100960.13;;;15.29;76.16
23733;BME280;12047;53.450;-2.286;2023-04-24T15:51:22;100953.97;;;15.45;71.19
23733;BME280;12047;53.450;-2.286;2023-04-24T15:56:24;100974.84;;;14.99;70.72
23733;BME280;12047;53.450;-2.286;2023-04-24T16:01:24;100981.72;;;15.02;71.96
23733;BME280;12047;53.450;-2.286;2023-04-24T16:06:25;100985.91;;;14.26;74.41
23733;BME280;12047;53.450;-2.286;2023-04-24T16:11:26;100997.97;;;14.56;74.63
23733;BME280;12047;53.450;-2.286;2023-04-24T16:16:27;101000.94;;;14.36;72.75
23733;BME280;12047;53.450;-2.286;2023-04-24T16:21:27;101017.06;;;14.08;73.57
23733;BME280;12047;53.450;-2.286;2023-04-24T16:26:28;101012.72;;;14.07;72.35
23733;BME280;12047;53.450;-2.286;2023-04-24T16:31:28;101016.94;;;14.53;71.12
23733;BME280;12047;53.450;-2.286;2023-04-24T16:36:29;101023.91;;;13.75;71.44
23733;BME280;12047;53.450;-2.286;2023-04-24T16:41:30;101024.66;;;14.56;67.24
23733;BME280;12047;53.450;-2.286;2023-04-24T16:46:31;101035.94;;;14.76;64.24
23733;BME280;12047;53.450;-2.286;2023-04-24T16:51:31;101035.78;;;14.78;64.22
23733;BME280;12047;53.450;-2.286;2023-04-24T16:56:32;101044.00;;;14.58;62.00
23733;BME280;12047;53.450;-2.286;2023-04-24T17:01:34;101046.69;;;14.92;63.02
23733;BME280;12047;53.450;-2.286;2023-04-24T17:06:34;101050.03;;;14.43;64.21
23733;BME280;12047;53.450;-2.286;2023-04-24T17:11:35;101054.38;;;14.95;65.02
23733;BME280;12047;53.450;-2.286;2023-04-24T17:16:36;101063.13;;;14.54;64.55
23733;BME280;12047;53.450;-2.286;2023-04-24T17:21:38;101069.84;;;15.52;62.93
23733;BME280;12047;53.450;-2.286;2023-04-24T17:26:39;101075.75;;;14.95;64.91
23733;BME280;12047;53.450;-2.286;2023-04-24T17:31:40;101079.56;;;14.49;68.13
23733;BME280;12047;53.450;-2.286;2023-04-24T17:36:40;101101.13;;;13.48;70.90
23733;BME280;12047;53.450;-2.286;2023-04-24T17:41:51;101104.47;;;13.59;70.55
23733;BME280;12047;53.450;-2.286;2023-04-24T17:46:51;101102.38;;;13.81;71.05
23733;BME280;12047;53.450;-2.286;2023-04-24T17:51:52;101116.84;;;13.41;70.99
23733;BME280;12047;53.450;-2.286;2023-04-24T17:56:52;101122.34;;;13.67;69.38
23733;BME280;12047;53.450;-2.286;2023-04-24T18:01:53;101125.13;;;13.93;68.36
23733;BME280;12047;53.450;-2.286;2023-04-24T18:06:54;101120.47;;;14.22;67.28
23733;BME280;12047;53.450;-2.286;2023-04-24T18:11:54;101117.78;;;14.22;65.64
23733;BME280;12047;53.450;-2.286;2023-04-24T18:16:56;101127.31;;;14.07;66.56
23733;BME280;12047;53.450;-2.286;2023-04-24T18:21:57;101137.38;;;14.67;64.88
23733;BME280;12047;53.450;-2.286;2023-04-24T18:26:58;101143.06;;;14.01;62.53
23733;BME280;12047;53.450;-2.286;2023-04-24T18:31:59;101144.94;;;14.53;62.30
23733;BME280;12047;53.450;-2.286;2023-04-24T18:36:59;101153.16;;;13.70;63.08
23733;BME280;12047;53.450;-2.286;2023-04-24T18:42:00;101156.06;;;14.49;63.03
23733;BME280;12047;53.450;-2.286;2023-04-24T18:47:00;101170.44;;;13.93;61.92
23733;BME280;12047;53.450;-2.286;2023-04-24T18:52:01;101175.50;;;14.59;60.54
23733;BME280;12047;53.450;-2.286;2023-04-24T18:57:02;101183.25;;;13.43;61.25
23733;BME280;12047;53.450;-2.286;2023-04-24T19:02:02;101180.47;;;13.81;60.36
23733;BME280;12047;53.450;-2.286;2023-04-24T19:07:03;101183.81;;;13.37;61.46
23733;BME280;12047;53.450;-2.286;2023-04-24T19:12:03;101195.94;;;13.95;61.07
23733;BME280;12047;53.450;-2.286;2023-04-24T19:17:05;101201.41;;;14.21;60.73
23733;BME280;12047;53.450;-2.286;2023-04-24T19:22:08;101198.63;;;14.13;60.68
23733;BME280;12047;53.450;-2.286;2023-04-24T19:27:08;101217.91;;;13.33;61.15
23733;BME280;12047;53.450;-2.286;2023-04-24T19:32:09;101220.84;;;13.01;60.31
23733;BME280;12047;53.450;-2.286;2023-04-24T19:37:09;101227.84;;;13.02;60.06
23733;BME280;12047;53.450;-2.286;2023-04-24T19:42:10;101245.84;;;14.30;58.43
23733;BME280;12047;53.450;-2.286;2023-04-24T19:47:10;101256.75;;;13.73;59.47
23733;BME280;12047;53.450;-2.286;2023-04-24T19:52:12;101259.75;;;13.50;60.27
23733;BME280;12047;53.450;-2.286;2023-04-24T19:57:14;101264.84;;;13.34;59.95
23733;BME280;12047;53.450;-2.286;2023-04-24T20:02:15;101276.00;;;12.89;59.87
23733;BME280;12047;53.450;-2.286;2023-04-24T20:07:15;101278.91;;;12.57;60.31
23733;BME280;12047;53.450;-2.286;2023-04-24T20:12:16;101287.50;;;13.38;60.57
23733;BME280;12047;53.450;-2.286;2023-04-24T20:17:17;101285.28;;;13.90;60.16
23733;BME280;12047;53.450;-2.286;2023-04-24T20:22:17;101290.84;;;12.82;61.42
23733;BME280;12047;53.450;-2.286;2023-04-24T20:27:18;101291.28;;;13.07;61.40
23733;BME280;12047;53.450;-2.286;2023-04-24T20:32:19;101304.38;;;12.60;62.61
23733;BME280;12047;53.450;-2.286;2023-04-24T20:37:20;101310.72;;;12.98;61.63
23733;BME280;12047;53.450;-2.286;2023-04-24T20:42:21;101304.97;;;12.92;62.24
23733;BME280;12047;53.450;-2.286;2023-04-24T20:47:21;101304.94;;;12.54;63.00
23733;BME280;12047;53.450;-2.286;2023-04-24T20:52:22;101314.50;;;13.14;62.55
23733;BME280;12047;53.450;-2.286;2023-04-24T20:57:22;101329.50;;;12.86;62.89
23733;BME280;12047;53.450;-2.286;2023-04-24T21:02:23;101335.78;;;12.95;63.47
23733;BME280;12047;53.450;-2.286;2023-04-24T21:07:23;101335.22;;;12.42;63.22
23733;BME280;12047;53.450;-2.286;2023-04-24T21:12:23;101343.06;;;12.83;62.30
23733;BME280;12047;53.450;-2.286;2023-04-24T21:17:24;101352.97;;;12.01;63.30
23733;BME280;12047;53.450;-2.286;2023-04-24T21:22:24;101360.63;;;12.65;63.06
23733;BME280;12047;53.450;-2.286;2023-04-24T21:27:25;101373.06;;;13.05;62.56
23733;BME280;12047;53.450;-2.286;2023-04-24T21:32:25;101377.06;;;12.89;62.07
23733;BME280;12047;53.450;-2.286;2023-04-24T21:37:26;101381.94;;;12.75;63.30
23733;BME280;12047;53.450;-2.286;2023-04-24T21:42:26;101375.78;;;12.74;63.76
23733;BME280;12047;53.450;-2.286;2023-04-24T21:47:27;101383.50;;;12.77;63.43
23733;BME280;12047;53.450;-2.286;2023-04-24T21:52:27;101382.38;;;12.80;64.27
23733;BME280;12047;53.450;-2.286;2023-04-24T21:57:28;101381.00;;;12.45;63.87
23733;BME280;12047;53.450;-2.286;2023-04-24T22:02:29;101386.69;;;13.40;64.38
23733;BME280;12047;53.450;-2.286;2023-04-24T22:07:32;101389.03;;;12.65;63.89
23733;BME280;12047;53.450;-2.286;2023-04-24T22:12:35;101396.38;;;12.11;65.23
23733;BME280;12047;53.450;-2.286;2023-04-24T22:17:36;101397.97;;;13.04;64.64
23733;BME280;12047;53.450;-2.286;2023-04-24T22:22:36;101393.50;;;12.64;64.56
23733;BME280;12047;53.450;-2.286;2023-04-24T22:27:36;101398.41;;;12.29;64.42
23733;BME280;12047;53.450;-2.286;2023-04-24T22:32:37;101388.81;;;12.16;66.23
23733;BME280;12047;53.450;-2.286;2023-04-24T22:37:38;101390.31;;;12.30;65.43
23733;BME280;12047;53.450;-2.286;2023-04-24T22:42:38;101401.09;;;12.69;65.21
23733;BME280;12047;53.450;-2.286;2023-04-24T22:47:39;101401.06;;;12.59;64.61
23733;BME280;12047;53.450;-2.286;2023-04-24T22:52:40;101402.78;;;12.39;65.19
23733;BME280;12047;53.450;-2.286;2023-04-24T22:57:40;101406.13;;;12.32;66.25
23733;BME280;12047;53.450;-2.286;2023-04-24T23:02:41;101397.97;;;12.54;65.56
23733;BME280;12047;53.450;-2.286;2023-04-24T23:07:42;101413.66;;;13.07;65.40
23733;BME280;12047;53.450;-2.286;2023-04-24T23:12:42;101423.41;;;12.87;65.45
23733;BME280;12047;53.450;-2.286;2023-04-24T23:17:43;101422.06;;;12.32;65.90
23733;BME280;12047;53.450;-2.286;2023-04-24T23:22:43;101425.91;;;12.48;67.30
23733;BME280;12047;53.450;-2.286;2023-04-24T23:27:44;101433.09;;;12.98;65.98
23733;BME280;12047;53.450;-2.286;2023-04-24T23:32:44;101439.06;;;12.80;68.81
23733;BME280;12047;53.450;-2.286;2023-04-24T23:37:45;101445.88;;;13.04;67.92
23733;BME280;12047;53.450;-2.286;2023-04-24T23:42:45;101455.41;;;13.06;67.18
23733;BME280;12047;53.450;-2.286;2023-04-24T23:47:45;101458.66;;;12.49;68.25
23733;BME280;12047;53.450;-2.286;2023-04-24T23:52:46;101458.91;;;12.46;67.21
23733;BME280;12047;53.450;-2.286;2023-04-24T23:57:46;101461.13;;;12.62;66.68
